createdAt,value
2022-12-14T00:02:01.045Z,100064.24
2022-12-14T00:05:07.717Z,100070.26
2022-12-14T00:08:16.467Z,100079.08
2022-12-14T00:11:28.330Z,100086.55
2022-12-14T00:14:38.919Z,100090.94
2022-12-14T00:17:50.270Z,100093.98
2022-12-14T00:20:59.033Z,100099.13
2022-12-14T00:24:09.925Z,100112.73
2022-12-14T00:27:17.959Z,100105.91
2022-12-14T00:30:28.894Z,100105.20
2022-12-14T00:33:35.229Z,100115.72
2022-12-14T00:36:45.229Z,100136.52
2022-12-14T00:39:52.703Z,100142.14
2022-12-14T00:43:01.111Z,100149.23
2022-12-14T00:46:09.916Z,100148.51
2022-12-14T00:49:16.939Z,100153.27
2022-12-14T00:52:26.065Z,100156.06
2022-12-14T00:55:32.663Z,100158.87
2022-12-14T00:58:40.795Z,100176.73
2022-12-14T01:01:51.875Z,100192.64
2022-12-14T01:05:00.270Z,100186.28
2022-12-14T01:08:07.851Z,100200.09
2022-12-14T01:11:20.998Z,100211.72
2022-12-14T01:14:34.587Z,100200.71
2022-12-14T01:17:43.714Z,100208.02
2022-12-14T01:20:53.983Z,100218.89
2022-12-14T01:24:09.724Z,100228.89
2022-12-14T01:27:20.358Z,100225.20
2022-12-14T01:30:29.342Z,100241.19
2022-12-14T01:33:37.243Z,100234.74
2022-12-14T01:36:46.361Z,100239.84
2022-12-14T01:39:52.656Z,100242.98
2022-12-14T01:43:00.536Z,100257.78
2022-12-14T01:46:11.503Z,100265.30
2022-12-14T01:49:24.718Z,100279.48
2022-12-14T01:52:37.792Z,100285.09
2022-12-14T01:55:53.557Z,100295.31
2022-12-14T01:59:05.316Z,100302.67
2022-12-14T02:02:15.485Z,100305.65
2022-12-14T02:05:23.407Z,100300.95
2022-12-14T02:08:31.691Z,100309.22
2022-12-14T02:11:58.717Z,100305.70
2022-12-14T02:15:05.070Z,100312.58
2022-12-14T02:18:22.212Z,100326.16
2022-12-14T02:22:01.935Z,100331.53
2022-12-14T02:25:50.979Z,100333.13
2022-12-14T02:29:11.196Z,100342.58
2022-12-14T02:33:11.121Z,100363.13
2022-12-14T02:36:28.614Z,100373.44
2022-12-14T02:40:09.329Z,100372.66
2022-12-14T02:43:36.857Z,100381.42
2022-12-14T02:46:57.283Z,100381.48
2022-12-14T02:50:34.205Z,100397.44
2022-12-14T02:53:48.683Z,100411.92
2022-12-14T02:57:02.582Z,100411.41
2022-12-14T03:00:14.171Z,100418.55
2022-12-14T03:03:24.296Z,100417.39
2022-12-14T03:06:35.037Z,100428.64
2022-12-14T03:09:43.811Z,100423.18
2022-12-14T03:12:46.411Z,100439.41
2022-12-14T03:15:56.660Z,100446.73
2022-12-14T03:19:12.609Z,100448.62
2022-12-14T03:22:29.447Z,100463.83
2022-12-14T03:25:44.382Z,100467.05
2022-12-14T03:29:11.825Z,100475.16
2022-12-14T03:32:25.899Z,100477.42
2022-12-14T03:35:51.403Z,100489.25
2022-12-14T03:39:05.700Z,100495.56
2022-12-14T03:42:42.628Z,100502.24
2022-12-14T03:46:10.601Z,100496.56
2022-12-14T03:49:49.009Z,100515.37
2022-12-14T03:53:29.547Z,100521.84
2022-12-14T03:57:02.321Z,100534.42
2022-12-14T04:00:28.432Z,100535.84
2022-12-14T04:04:09.025Z,100540.02
2022-12-14T04:07:35.361Z,100545.45
2022-12-14T04:11:08.605Z,100546.54
2022-12-14T04:14:51.495Z,100547.50
2022-12-14T04:18:19.362Z,100552.93
2022-12-14T04:21:58.967Z,100557.48
2022-12-14T04:25:36.029Z,100557.34
2022-12-14T04:29:10.727Z,100575.43
2022-12-14T04:32:45.186Z,100574.00
2022-12-14T04:35:59.849Z,100578.33
2022-12-14T04:39:24.244Z,100575.03
2022-12-14T04:42:40.752Z,100581.07
2022-12-14T04:45:59.180Z,100588.53
2022-12-14T04:49:42.993Z,100584.67
2022-12-14T04:53:26.267Z,100593.27
2022-12-14T04:57:17.401Z,100593.09
2022-12-14T05:00:36.747Z,100594.20
2022-12-14T05:04:14.534Z,100596.45
2022-12-14T05:07:32.673Z,100600.53
2022-12-14T05:11:04.740Z,100609.16
2022-12-14T05:14:05.870Z,100610.42
2022-12-14T05:17:12.806Z,100613.78
2022-12-14T05:20:21.483Z,100621.30
2022-12-14T05:23:31.293Z,100627.31
2022-12-14T05:26:46.561Z,100636.43
2022-12-14T05:29:55.063Z,100645.05
2022-12-14T05:33:07.118Z,100657.27
2022-12-14T05:36:18.308Z,100664.09
2022-12-14T05:39:34.449Z,100668.70
2022-12-14T05:42:48.699Z,100669.62
2022-12-14T05:45:54.972Z,100676.25
2022-12-14T05:49:19.632Z,100685.52
2022-12-14T05:52:31.443Z,100693.77
2022-12-14T05:56:18.666Z,100700.22
2022-12-14T05:59:31.494Z,100698.41
2022-12-14T06:02:38.833Z,100710.55
2022-12-14T06:05:44.764Z,100708.09
2022-12-14T06:09:24.379Z,100720.07
2022-12-14T06:13:03.742Z,100723.62
2022-12-14T06:16:28.902Z,100734.73
2022-12-14T06:20:01.486Z,100736.77
2022-12-14T06:23:14.419Z,100725.84
2022-12-14T06:26:33.220Z,100736.30
2022-12-14T06:33:25.580Z,100746.66
2022-12-14T06:36:42.319Z,100759.63
2022-12-14T06:40:09.089Z,100760.70
2022-12-14T06:43:23.690Z,100771.95
2022-12-14T06:46:44.225Z,100778.26
2022-12-14T06:49:51.267Z,100786.44
2022-12-14T06:53:14.090Z,100789.42
2022-12-14T06:56:34.489Z,100788.41
2022-12-14T06:59:55.318Z,100800.09
2022-12-14T07:03:08.789Z,100805.44
2022-12-14T07:06:41.607Z,100808.27
2022-12-14T07:09:53.472Z,100819.80
2022-12-14T07:13:10.632Z,100821.30
2022-12-14T07:16:34.701Z,100824.31
2022-12-14T07:19:52.573Z,100832.88
2022-12-14T07:23:08.089Z,100836.84
2022-12-14T07:26:29.192Z,100844.81
2022-12-14T07:29:51.885Z,100852.12
2022-12-14T07:33:12.023Z,100852.76
2022-12-14T07:36:43.371Z,100856.41
2022-12-14T07:39:56.025Z,100864.13
2022-12-14T07:43:24.211Z,100863.95
2022-12-14T07:46:47.446Z,100873.58
2022-12-14T07:50:00.544Z,100876.64
2022-12-14T07:53:31.167Z,100883.40
2022-12-14T07:56:44.604Z,100887.22
2022-12-14T07:59:58.441Z,100890.09
2022-12-14T08:03:16.352Z,100889.33
2022-12-14T08:06:40.906Z,100890.95
2022-12-14T08:13:44.641Z,100894.47
2022-12-14T08:17:06.795Z,100900.22
2022-12-14T08:20:22.964Z,100910.42
2022-12-14T08:23:37.205Z,100908.09
2022-12-14T08:30:27.093Z,100913.41
2022-12-14T08:33:45.490Z,100926.30
2022-12-14T08:37:00.914Z,100925.16
2022-12-14T08:40:14.202Z,100930.05
2022-12-14T08:43:35.249Z,100932.81
2022-12-14T08:46:56.797Z,100930.59
2022-12-14T08:50:12.531Z,100927.95
2022-12-14T08:53:23.752Z,100929.08
2022-12-14T08:56:35.519Z,100931.73
2022-12-14T09:00:02.582Z,100939.34
2022-12-14T09:03:20.219Z,100934.89
2022-12-14T09:06:42.172Z,100937.73
2022-12-14T09:09:53.046Z,100937.75
2022-12-14T09:13:04.397Z,100934.98
2022-12-14T09:16:32.026Z,100951.83
2022-12-14T09:19:52.438Z,100957.31
2022-12-14T09:23:09.943Z,100959.06
2022-12-14T09:26:31.264Z,100962.16
2022-12-14T09:29:59.087Z,100971.30
2022-12-14T09:33:06.979Z,100981.90
2022-12-14T09:36:28.576Z,100978.13
2022-12-14T09:39:48.804Z,100984.09
2022-12-14T09:43:18.983Z,100982.84
2022-12-14T09:46:56.456Z,100985.95
2022-12-14T09:50:34.307Z,100994.29
2022-12-14T09:53:47.047Z,100988.16
2022-12-14T09:57:03.429Z,100997.76
2022-12-14T10:00:22.424Z,100995.94
2022-12-14T10:03:41.969Z,100996.42
2022-12-14T10:07:34.340Z,101003.16
2022-12-14T10:25:38.382Z,101014.57
2022-12-14T10:29:12.130Z,101016.77
2022-12-14T10:36:58.708Z,101025.52
2022-12-14T10:40:41.106Z,101034.28
2022-12-14T10:44:37.052Z,101028.48
2022-12-14T10:48:04.313Z,101036.06
2022-12-14T10:51:25.885Z,101037.05
2022-12-14T10:55:05.283Z,101039.73
2022-12-14T10:58:19.922Z,101046.84
2022-12-14T11:01:36.613Z,101046.75
2022-12-14T11:05:22.139Z,101048.88
2022-12-14T11:09:02.120Z,101053.76
2022-12-14T11:12:36.154Z,101054.27
2022-12-14T11:16:05.928Z,101045.97
2022-12-14T11:23:34.565Z,101063.66
2022-12-14T11:26:57.785Z,101063.77
2022-12-14T11:31:02.268Z,101070.20
2022-12-14T11:34:31.624Z,101077.34
2022-12-14T11:37:45.426Z,101077.75
2022-12-14T11:41:00.975Z,101078.29
2022-12-14T11:48:50.713Z,101082.53
2022-12-14T11:52:32.178Z,101089.48
2022-12-14T11:55:44.770Z,101086.48
2022-12-14T11:59:06.818Z,101083.52
2022-12-14T12:03:16.870Z,101086.88
2022-12-14T12:06:32.707Z,101087.39
2022-12-14T12:09:55.953Z,101083.55
2022-12-14T12:13:21.451Z,101093.94
2022-12-14T12:16:39.880Z,101096.62
2022-12-14T12:19:50.442Z,101106.06
2022-12-14T12:23:14.505Z,101101.53
2022-12-14T12:26:51.400Z,101109.73
2022-12-14T12:30:10.392Z,101114.05
2022-12-14T12:33:41.473Z,101123.74
2022-12-14T12:37:25.429Z,101126.45
2022-12-14T12:41:05.699Z,101130.29
2022-12-14T12:48:22.171Z,101127.15
2022-12-14T12:55:57.006Z,101135.52
2022-12-14T12:59:17.858Z,101138.02
2022-12-14T13:02:54.837Z,101140.60
2022-12-14T13:06:10.209Z,101147.84
2022-12-14T13:10:01.888Z,101147.55
2022-12-14T13:13:20.286Z,101144.59
2022-12-14T13:17:01.716Z,101159.74
2022-12-14T13:21:23.823Z,101156.06
2022-12-14T13:24:35.879Z,101173.13
2022-12-14T13:28:36.391Z,101177.06
2022-12-14T13:32:35.449Z,101179.70
2022-12-14T13:36:51.753Z,101189.86
2022-12-14T13:40:41.381Z,101195.19
2022-12-14T13:44:44.200Z,101201.53
2022-12-14T13:48:13.458Z,101207.89
2022-12-14T13:51:41.917Z,101210.87
2022-12-14T13:55:00.830Z,101212.06
2022-12-14T13:58:34.589Z,101223.52
2022-12-14T14:02:14.377Z,101228.62
2022-12-14T14:05:49.593Z,101231.43
2022-12-14T14:09:15.391Z,101226.87
2022-12-14T14:12:48.846Z,101227.56
2022-12-14T14:16:28.549Z,101240.61
2022-12-14T14:19:49.372Z,101236.38
2022-12-14T14:23:12.316Z,101236.39
2022-12-14T14:26:59.180Z,101239.89
2022-12-14T14:30:11.275Z,101238.03
2022-12-14T14:34:12.589Z,101238.00
2022-12-14T14:37:35.015Z,101253.94
2022-12-14T14:41:18.147Z,101250.73
2022-12-14T14:44:39.219Z,101248.79
2022-12-14T14:48:02.222Z,101255.76
2022-12-14T14:51:42.580Z,101257.77
2022-12-14T14:55:21.774Z,101253.89
2022-12-14T14:58:29.056Z,101258.92
2022-12-14T15:01:49.547Z,101254.97
2022-12-14T15:12:48.495Z,101257.70
2022-12-14T15:16:06.768Z,101261.04
2022-12-14T15:19:47.445Z,101259.84
2022-12-14T15:22:58.339Z,101267.61
2022-12-14T15:26:21.111Z,101277.56
2022-12-14T15:33:18.845Z,101289.05
2022-12-14T15:36:34.967Z,101300.33
2022-12-14T15:39:52.295Z,101298.24
2022-12-14T15:43:13.031Z,101308.61
2022-12-14T15:46:37.201Z,101307.41
2022-12-14T15:49:45.560Z,101313.01
2022-12-14T15:53:03.778Z,101318.94
2022-12-14T15:56:13.306Z,101327.61
2022-12-14T15:59:40.630Z,101327.30
2022-12-14T16:02:54.118Z,101325.70
2022-12-14T16:06:12.865Z,101327.49
2022-12-14T16:09:39.009Z,101333.27
2022-12-14T16:12:59.669Z,101333.98
2022-12-14T16:16:09.307Z,101339.34
2022-12-14T16:19:28.690Z,101354.41
2022-12-14T16:22:43.070Z,101346.32
2022-12-14T16:26:18.837Z,101341.03
2022-12-14T16:29:48.070Z,101356.65
2022-12-14T16:32:59.599Z,101351.73
2022-12-14T16:36:28.040Z,101354.86
2022-12-14T16:39:42.061Z,101360.63
2022-12-14T16:43:08.028Z,101360.63
2022-12-14T16:46:25.119Z,101358.35
2022-12-14T16:49:47.045Z,101353.13
2022-12-14T16:53:04.164Z,101345.69
2022-12-14T16:56:26.380Z,101348.19
2022-12-14T16:59:42.884Z,101360.64
2022-12-14T17:02:55.581Z,101366.86
2022-12-14T17:06:13.637Z,101368.13
2022-12-14T17:09:29.029Z,101372.87
2022-12-14T17:12:53.484Z,101383.80
2022-12-14T17:16:21.259Z,101388.48
2022-12-14T17:19:35.873Z,101395.34
2022-12-14T17:22:49.925Z,101394.94
2022-12-14T17:26:11.028Z,101402.02
2022-12-14T17:29:24.326Z,101415.36
2022-12-14T17:32:40.892Z,101399.77
2022-12-14T17:35:58.030Z,101412.07
2022-12-14T17:39:09.329Z,101406.61
2022-12-14T17:42:19.113Z,101412.78
2022-12-14T17:45:46.216Z,101422.95
2022-12-14T17:49:06.599Z,101430.53
2022-12-14T17:52:18.701Z,101433.64
2022-12-14T17:55:38.588Z,101433.58
2022-12-14T17:58:47.926Z,101441.98
2022-12-14T18:02:00.506Z,101441.66
2022-12-14T18:05:14.728Z,101440.31
2022-12-14T18:08:33.662Z,101434.98
2022-12-14T18:12:14.380Z,101434.98
2022-12-14T18:15:12.868Z,101443.27
2022-12-14T18:18:39.600Z,101448.44
2022-12-14T18:21:56.585Z,101443.30
2022-12-14T18:25:09.007Z,101452.48
2022-12-14T18:28:22.026Z,101454.09
2022-12-14T18:31:40.196Z,101450.09
2022-12-14T18:34:53.707Z,101455.09
2022-12-14T18:38:01.560Z,101459.55
2022-12-14T18:41:13.401Z,101461.44
2022-12-14T18:44:24.147Z,101452.65
2022-12-14T18:47:42.794Z,101462.06
2022-12-14T18:50:56.501Z,101463.84
2022-12-14T18:54:17.213Z,101461.95
2022-12-14T18:57:31.303Z,101462.94
2022-12-14T19:00:45.116Z,101464.92
2022-12-14T19:03:59.241Z,101465.18
2022-12-14T19:07:08.879Z,101461.72
2022-12-14T19:10:29.469Z,101458.84
2022-12-14T19:13:54.543Z,101463.90
2022-12-14T19:17:18.028Z,101462.05
2022-12-14T19:20:39.554Z,101460.47
2022-12-14T19:23:59.600Z,101444.30
2022-12-14T19:27:15.535Z,101438.50
2022-12-14T19:30:25.531Z,101436.28
2022-12-14T19:33:43.632Z,101441.84
2022-12-14T19:36:57.098Z,101446.34
2022-12-14T19:40:13.827Z,101439.22
2022-12-14T19:43:24.744Z,101437.37
2022-12-14T19:46:34.376Z,101443.29
2022-12-14T19:49:48.837Z,101437.00
2022-12-14T19:53:11.349Z,101440.88
2022-12-14T19:56:25.523Z,101434.13
2022-12-14T19:59:44.047Z,101447.35
2022-12-14T20:03:01.654Z,101444.13
2022-12-14T20:06:23.925Z,101450.73
2022-12-14T20:09:42.931Z,101442.34
2022-12-14T20:12:52.644Z,101439.28
2022-12-14T20:16:09.290Z,101433.05
2022-12-14T20:19:31.834Z,101429.09
2022-12-14T20:22:44.015Z,101434.05
2022-12-14T20:25:55.764Z,101447.48
2022-12-14T20:29:23.357Z,101443.87
2022-12-14T20:32:35.367Z,101451.14
2022-12-14T20:35:48.015Z,101449.28
2022-12-14T20:39:00.535Z,101445.12
2022-12-14T20:42:14.935Z,101442.91
2022-12-14T20:45:34.351Z,101448.38
2022-12-14T20:48:56.599Z,101445.95
2022-12-14T20:52:13.290Z,101448.38
2022-12-14T20:55:23.648Z,101445.74
2022-12-14T20:59:10.167Z,101440.42
2022-12-14T21:02:47.435Z,101439.71
2022-12-14T21:06:13.871Z,101438.17
2022-12-14T21:09:46.259Z,101429.74
2022-12-14T21:13:07.756Z,101427.59
2022-12-14T21:16:44.269Z,101432.38
